Terminal Aerodrome Forecast
Issued by NWS Wilmington, NC

Home | Current Version | Previous Version | Text Only | Print | Product List | Glossary On
Versions: 1 2 3 4 5 6 7 8 9 10 11 12 13 14 15 16 17 18 19 20
000
FTUS42 KILM 242356 CCA
TAFLBT
TAF COR
KLBT 242356Z 2500/2524 23006KT P6SM SCT030 BKN120 OVC250
     FM250500 26003KT P6SM BKN120 OVC250
      TEMPO 2509/2513 00000KT 3SM BR SCT003
     FM251400 24004KT P6SM SCT025 BKN120
     FM251800 19004KT P6SM SCT045 BKN150 PROB30 2518/2524 4SM -TSRA
      BKN030CB=

USA.gov is the U.S. government's official web portal to all federal, state and local government web resources and services.